<?xml version="1.0" encoding="UTF-8" standalone="no" ?>
<gpx xmlns="http://www.topografix.com/GPX/1/1" xmlns:xsi="http://www.w3.org/2001/XMLSchema-instance" xsi:schemaLocation="http://www.topografix.com/GPX/1/1 http://www.topografix.com/GPX/1/1/gpx.xsd" version="1.1" creator="VisuGPX - https://www.visugpx.com">
  <metadata>
    <name>rando Scean St Angel pentecôte 2012</name>
    <desc><![CDATA[trace de la randonnée de Sceau St Angel 2012
  tunnel ferrovière]]></desc>
  </metadata>
  <wpt lat="45.50694" lon="0.67361">
    <ele>211</ele>
    <name><![CDATA[carrefour]]></name>
    <desc><![CDATA[27-MAI-12 5:04:32PM]]></desc>
    <cmt><![CDATA[27-MAI-12 5:04:32PM]]></cmt>
  </wpt>
  <wpt lat="45.50564" lon="0.67534">
    <ele>210</ele>
    <name><![CDATA[garde barrière 27]]></name>
    <desc><![CDATA[27-MAI-12 5:09:13PM]]></desc>
    <cmt><![CDATA[27-MAI-12 5:09:13PM]]></cmt>
  </wpt>
  <wpt lat="45.51248" lon="0.6723">
    <ele>223</ele>
    <name><![CDATA[tunnel]]></name>
    <desc><![CDATA[27-MAI-12 4:37:24PM]]></desc>
    <cmt><![CDATA[27-MAI-12 4:37:24PM]]></cmt>
  </wpt>
  <wpt lat="45.50833" lon="0.67279">
    <ele>227</ele>
    <name><![CDATA[tunnel-1]]></name>
    <desc><![CDATA[27-MAI-12 4:56:19PM]]></desc>
    <cmt><![CDATA[27-MAI-12 4:56:19PM]]></cmt>
  </wpt>
  <trk>
    <name><![CDATA[ACTIVE LOG 001]]></name>
    <trkseg>
      <trkpt lat="45.51868" lon="0.66932">
        <ele>196</ele>
        <time>2012-05-27T14:19:16Z</time>
      </trkpt>
      <trkpt lat="45.51863" lon="0.66939">
        <ele>196</ele>
        <time>2012-05-27T14:19:28Z</time>
      </trkpt>
      <trkpt lat="45.51841" lon="0.66957">
        <ele>196</ele>
        <time>2012-05-27T14:19:46Z</time>
      </trkpt>
      <trkpt lat="45.51821" lon="0.66982">
        <ele>197</ele>
        <time>2012-05-27T14:19:59Z</time>
      </trkpt>
      <trkpt lat="45.5181" lon="0.66992">
        <ele>197</ele>
        <time>2012-05-27T14:20:05Z</time>
      </trkpt>
      <trkpt lat="45.51785" lon="0.67031">
        <ele>199</ele>
        <time>2012-05-27T14:20:21Z</time>
      </trkpt>
      <trkpt lat="45.51775" lon="0.67055">
        <ele>200</ele>
        <time>2012-05-27T14:20:34Z</time>
      </trkpt>
      <trkpt lat="45.51767" lon="0.67063">
        <ele>200</ele>
        <time>2012-05-27T14:20:47Z</time>
      </trkpt>
      <trkpt lat="45.51768" lon="0.67065">
        <ele>200</ele>
        <time>2012-05-27T14:21:22Z</time>
      </trkpt>
      <trkpt lat="45.51764" lon="0.67064">
        <ele>200</ele>
        <time>2012-05-27T14:21:33Z</time>
      </trkpt>
      <trkpt lat="45.51749" lon="0.67069">
        <ele>200</ele>
        <time>2012-05-27T14:21:47Z</time>
      </trkpt>
      <trkpt lat="45.51738" lon="0.67071">
        <ele>200</ele>
        <time>2012-05-27T14:21:59Z</time>
      </trkpt>
      <trkpt lat="45.51724" lon="0.67064">
        <ele>201</ele>
        <time>2012-05-27T14:22:15Z</time>
      </trkpt>
      <trkpt lat="45.51718" lon="0.67061">
        <ele>201</ele>
        <time>2012-05-27T14:22:28Z</time>
      </trkpt>
      <trkpt lat="45.51715" lon="0.67059">
        <ele>201</ele>
        <time>2012-05-27T14:22:40Z</time>
      </trkpt>
      <trkpt lat="45.51714" lon="0.67061">
        <ele>201</ele>
        <time>2012-05-27T14:22:56Z</time>
      </trkpt>
      <trkpt lat="45.51714" lon="0.67062">
        <ele>201</ele>
        <time>2012-05-27T14:23:27Z</time>
      </trkpt>
      <trkpt lat="45.51709" lon="0.67066">
        <ele>201</ele>
        <time>2012-05-27T14:24:04Z</time>
      </trkpt>
      <trkpt lat="45.51701" lon="0.6708">
        <ele>202</ele>
        <time>2012-05-27T14:24:15Z</time>
      </trkpt>
      <trkpt lat="45.51692" lon="0.67089">
        <ele>203</ele>
        <time>2012-05-27T14:24:28Z</time>
      </trkpt>
      <trkpt lat="45.51675" lon="0.67102">
        <ele>203</ele>
        <time>2012-05-27T14:24:51Z</time>
      </trkpt>
      <trkpt lat="45.51675" lon="0.67108">
        <ele>203</ele>
        <time>2012-05-27T14:25:07Z</time>
      </trkpt>
      <trkpt lat="45.51662" lon="0.67119">
        <ele>204</ele>
        <time>2012-05-27T14:25:23Z</time>
      </trkpt>
      <trkpt lat="45.51648" lon="0.67125">
        <ele>204</ele>
        <time>2012-05-27T14:25:40Z</time>
      </trkpt>
      <trkpt lat="45.51644" lon="0.67132">
        <ele>204</ele>
        <time>2012-05-27T14:25:55Z</time>
      </trkpt>
      <trkpt lat="45.51638" lon="0.67138">
        <ele>204</ele>
        <time>2012-05-27T14:26:12Z</time>
      </trkpt>
      <trkpt lat="45.51633" lon="0.67136">
        <ele>204</ele>
        <time>2012-05-27T14:26:18Z</time>
      </trkpt>
      <trkpt lat="45.51627" lon="0.67144">
        <ele>204</ele>
        <time>2012-05-27T14:26:31Z</time>
      </trkpt>
      <trkpt lat="45.51616" lon="0.67152">
        <ele>204</ele>
        <time>2012-05-27T14:26:43Z</time>
      </trkpt>
      <trkpt lat="45.51608" lon="0.67155">
        <ele>205</ele>
        <time>2012-05-27T14:26:53Z</time>
      </trkpt>
      <trkpt lat="45.51599" lon="0.6716">
        <ele>205</ele>
        <time>2012-05-27T14:27:07Z</time>
      </trkpt>
      <trkpt lat="45.51594" lon="0.67167">
        <ele>205</ele>
        <time>2012-05-27T14:27:17Z</time>
      </trkpt>
      <trkpt lat="45.51583" lon="0.67175">
        <ele>206</ele>
        <time>2012-05-27T14:27:39Z</time>
      </trkpt>
      <trkpt lat="45.51579" lon="0.67186">
        <ele>207</ele>
        <time>2012-05-27T14:28:08Z</time>
      </trkpt>
      <trkpt lat="45.5158" lon="0.67185">
        <ele>207</ele>
        <time>2012-05-27T14:28:45Z</time>
      </trkpt>
      <trkpt lat="45.51572" lon="0.67188">
        <ele>207</ele>
        <time>2012-05-27T14:28:56Z</time>
      </trkpt>
      <trkpt lat="45.51559" lon="0.67188">
        <ele>208</ele>
        <time>2012-05-27T14:29:10Z</time>
      </trkpt>
      <trkpt lat="45.5155" lon="0.67192">
        <ele>208</ele>
        <time>2012-05-27T14:29:25Z</time>
      </trkpt>
      <trkpt lat="45.51547" lon="0.67195">
        <ele>208</ele>
        <time>2012-05-27T14:29:29Z</time>
      </trkpt>
      <trkpt lat="45.51536" lon="0.67201">
        <ele>208</ele>
        <time>2012-05-27T14:29:42Z</time>
      </trkpt>
      <trkpt lat="45.51534" lon="0.672">
        <ele>208</ele>
        <time>2012-05-27T14:29:54Z</time>
      </trkpt>
      <trkpt lat="45.51536" lon="0.67197">
        <ele>208</ele>
        <time>2012-05-27T14:30:21Z</time>
      </trkpt>
      <trkpt lat="45.51538" lon="0.67199">
        <ele>208</ele>
        <time>2012-05-27T14:30:22Z</time>
      </trkpt>
      <trkpt lat="45.51529" lon="0.67201">
        <ele>209</ele>
        <time>2012-05-27T14:30:32Z</time>
      </trkpt>
      <trkpt lat="45.51518" lon="0.67204">
        <ele>209</ele>
        <time>2012-05-27T14:30:45Z</time>
      </trkpt>
      <trkpt lat="45.51508" lon="0.6721">
        <ele>209</ele>
        <time>2012-05-27T14:30:55Z</time>
      </trkpt>
      <trkpt lat="45.51492" lon="0.67214">
        <ele>211</ele>
        <time>2012-05-27T14:31:07Z</time>
      </trkpt>
      <trkpt lat="45.51491" lon="0.67214">
        <ele>211</ele>
        <time>2012-05-27T14:31:09Z</time>
      </trkpt>
      <trkpt lat="45.51482" lon="0.67214">
        <ele>211</ele>
        <time>2012-05-27T14:31:20Z</time>
      </trkpt>
      <trkpt lat="45.51477" lon="0.67216">
        <ele>211</ele>
        <time>2012-05-27T14:31:27Z</time>
      </trkpt>
      <trkpt lat="45.51471" lon="0.67215">
        <ele>211</ele>
        <time>2012-05-27T14:31:31Z</time>
      </trkpt>
      <trkpt lat="45.51465" lon="0.6722">
        <ele>211</ele>
        <time>2012-05-27T14:31:47Z</time>
      </trkpt>
      <trkpt lat="45.51463" lon="0.6722">
        <ele>211</ele>
        <time>2012-05-27T14:31:49Z</time>
      </trkpt>
      <trkpt lat="45.51451" lon="0.67219">
        <ele>212</ele>
        <time>2012-05-27T14:31:59Z</time>
      </trkpt>
      <trkpt lat="45.51439" lon="0.6722">
        <ele>212</ele>
        <time>2012-05-27T14:32:13Z</time>
      </trkpt>
      <trkpt lat="45.51435" lon="0.67222">
        <ele>212</ele>
        <time>2012-05-27T14:32:17Z</time>
      </trkpt>
      <trkpt lat="45.51422" lon="0.67223">
        <ele>212</ele>
        <time>2012-05-27T14:32:34Z</time>
      </trkpt>
      <trkpt lat="45.51407" lon="0.67229">
        <ele>213</ele>
        <time>2012-05-27T14:32:49Z</time>
      </trkpt>
      <trkpt lat="45.51392" lon="0.67233">
        <ele>213</ele>
        <time>2012-05-27T14:33:03Z</time>
      </trkpt>
      <trkpt lat="45.51385" lon="0.67232">
        <ele>213</ele>
        <time>2012-05-27T14:33:11Z</time>
      </trkpt>
      <trkpt lat="45.51371" lon="0.67226">
        <ele>213</ele>
        <time>2012-05-27T14:33:28Z</time>
      </trkpt>
      <trkpt lat="45.51352" lon="0.67227">
        <ele>213</ele>
        <time>2012-05-27T14:33:48Z</time>
      </trkpt>
      <trkpt lat="45.5135" lon="0.6723">
        <ele>214</ele>
        <time>2012-05-27T14:33:51Z</time>
      </trkpt>
      <trkpt lat="45.51341" lon="0.6723">
        <ele>214</ele>
        <time>2012-05-27T14:34:06Z</time>
      </trkpt>
      <trkpt lat="45.5134" lon="0.6723">
        <ele>214</ele>
        <time>2012-05-27T14:34:07Z</time>
      </trkpt>
      <trkpt lat="45.51331" lon="0.67229">
        <ele>216</ele>
        <time>2012-05-27T14:34:12Z</time>
      </trkpt>
      <trkpt lat="45.51323" lon="0.67232">
        <ele>216</ele>
        <time>2012-05-27T14:34:22Z</time>
      </trkpt>
      <trkpt lat="45.51328" lon="0.67233">
        <ele>216</ele>
        <time>2012-05-27T14:34:36Z</time>
      </trkpt>
      <trkpt lat="45.51326" lon="0.67233">
        <ele>216</ele>
        <time>2012-05-27T14:34:55Z</time>
      </trkpt>
      <trkpt lat="45.51335" lon="0.67226">
        <ele>214</ele>
        <time>2012-05-27T14:35:15Z</time>
      </trkpt>
      <trkpt lat="45.51315" lon="0.67234">
        <ele>216</ele>
        <time>2012-05-27T14:35:32Z</time>
      </trkpt>
      <trkpt lat="45.51307" lon="0.6723">
        <ele>216</ele>
        <time>2012-05-27T14:35:44Z</time>
      </trkpt>
      <trkpt lat="45.51306" lon="0.6723">
        <ele>216</ele>
        <time>2012-05-27T14:35:45Z</time>
      </trkpt>
      <trkpt lat="45.51302" lon="0.67227">
        <ele>216</ele>
        <time>2012-05-27T14:35:49Z</time>
      </trkpt>
      <trkpt lat="45.51296" lon="0.67228">
        <ele>217</ele>
        <time>2012-05-27T14:35:54Z</time>
      </trkpt>
      <trkpt lat="45.51286" lon="0.67226">
        <ele>217</ele>
        <time>2012-05-27T14:36:05Z</time>
      </trkpt>
      <trkpt lat="45.51279" lon="0.6723">
        <ele>217</ele>
        <time>2012-05-27T14:36:17Z</time>
      </trkpt>
      <trkpt lat="45.51271" lon="0.67239">
        <ele>218</ele>
        <time>2012-05-27T14:36:30Z</time>
      </trkpt>
      <trkpt lat="45.51271" lon="0.67242">
        <ele>218</ele>
        <time>2012-05-27T14:36:34Z</time>
      </trkpt>
      <trkpt lat="45.51267" lon="0.67239">
        <ele>218</ele>
        <time>2012-05-27T14:36:49Z</time>
      </trkpt>
      <trkpt lat="45.51251" lon="0.67232">
        <ele>218</ele>
        <time>2012-05-27T14:37:09Z</time>
      </trkpt>
      <trkpt lat="45.51248" lon="0.6723">
        <ele>223</ele>
        <time>2012-05-27T14:37:18Z</time>
      </trkpt>
      <trkpt lat="45.51249" lon="0.6723">
        <ele>223</ele>
        <time>2012-05-27T14:37:47Z</time>
      </trkpt>
      <trkpt lat="45.51252" lon="0.6723">
        <ele>218</ele>
        <time>2012-05-27T14:38:01Z</time>
      </trkpt>
      <trkpt lat="45.51251" lon="0.6723">
        <ele>218</ele>
        <time>2012-05-27T14:38:13Z</time>
      </trkpt>
      <trkpt lat="45.51256" lon="0.67229">
        <ele>218</ele>
        <time>2012-05-27T14:38:23Z</time>
      </trkpt>
    </trkseg>
  </trk>
</gpx>